Time;durP1;ratioP1;P1;durP2;ratioP2;P2;SDS_P1;SDS_P2;PMS_P1;PMS_P2;Temp;Humidity;BMP_temperature;BMP_pressure;BME280_temperature;BME280_humidity;BME280_pressure;Samples;Min_cycle;Max_cycle;Signal;HPM_P1;HPM_P2
2022/08/13 00:05:18;;;;;;;0.32;0.32;;;25.20;53.60;;;;;;10966426;32;20053;-71
2022/08/13 00:17:45;;;;;;;0.40;0.37;;;24.80;53.90;;;;;;10979850;32;20026;-71
2022/08/13 00:23:55;;;;;;;0.32;0.32;;;24.70;54.00;;;;;;10979611;32;20026;-71
2022/08/13 00:29:57;;;;;;;0.68;0.43;;;24.70;54.10;;;;;;10979669;32;20296;-71
2022/08/13 00:35:59;;;;;;;0.52;0.47;;;24.70;54.10;;;;;;10979660;32;20350;-71
2022/08/13 00:42:01;;;;;;;0.52;0.47;;;24.60;54.20;;;;;;10979373;32;20077;-71
2022/08/13 00:54:26;;;;;;;1.00;0.68;;;24.70;54.20;;;;;;10979799;32;20417;-72
2022/08/13 01:00:28;;;;;;;1.33;1.00;;;24.40;54.30;;;;;;10979136;32;20046;-73
2022/08/13 01:06:32;;;;;;;1.00;0.88;;;24.20;54.60;;;;;;10978884;32;20048;-74
2022/08/13 01:12:36;;;;;;;1.08;0.85;;;24.30;54.50;;;;;;10978969;32;20022;-71
2022/08/13 01:18:46;;;;;;;0.60;0.60;;;24.40;54.30;;;;;;10985544;32;20304;-71
2022/08/13 01:24:50;;;;;;;1.20;1.05;;;24.40;54.30;;;;;;10985736;32;20045;-71
2022/08/13 01:30:54;;;;;;;1.23;0.85;;;24.30;54.50;;;;;;10985286;32;20022;-71
2022/08/13 01:36:57;;;;;;;3.30;1.05;;;24.30;54.60;;;;;;10985317;32;20319;-71
2022/08/13 01:43:00;;;;;;;2.15;1.15;;;24.30;54.60;;;;;;10985194;32;20018;-73
2022/08/13 01:55:25;;;;;;;2.60;0.88;;;24.40;54.70;;;;;;10984882;32;20037;-73
2022/08/13 02:01:28;;;;;;;1.05;0.95;;;24.30;54.80;;;;;;10984602;32;20031;-73
2022/08/13 02:07:31;;;;;;;5.43;1.65;;;23.90;55.10;;;;;;10984176;32;20072;-73
2022/08/13 02:13:33;;;;;;;1.48;1.17;;;23.70;55.50;;;;;;10984084;32;20050;-73
2022/08/13 02:19:43;;;;;;;0.80;0.80;;;23.80;55.40;;;;;;10983949;32;20136;-73
2022/08/13 02:25:47;;;;;;;1.33;0.85;;;23.60;55.50;;;;;;10983620;32;20315;-73
2022/08/13 02:31:50;;;;;;;3.25;1.83;;;23.60;55.50;;;;;;10983254;32;20315;-73
2022/08/13 02:37:53;;;;;;;3.12;1.62;;;23.50;55.60;;;;;;10983082;32;20027;-73
2022/08/13 02:43:55;;;;;;;1.80;1.37;;;23.70;55.30;;;;;;10983063;32;20407;-73
2022/08/13 02:49:59;;;;;;;3.95;2.15;;;23.80;55.30;;;;;;10982621;32;20362;-73
2022/08/13 02:56:01;;;;;;;4.97;2.12;;;23.80;55.20;;;;;;10982488;32;20019;-73
2022/08/13 03:02:05;;;;;;;5.85;3.55;;;23.80;55.10;;;;;;10982317;32;20018;-73
2022/08/13 03:08:07;;;;;;;4.90;2.87;;;23.80;54.90;;;;;;10981882;32;20026;-73
2022/08/13 03:14:11;;;;;;;6.62;3.62;;;23.70;55.10;;;;;;10981959;32;20421;-73
2022/08/13 03:20:17;;;;;;;5.85;4.05;;;23.60;55.20;;;;;;10981670;32;20023;-73
2022/08/13 03:26:20;;;;;;;4.35;2.95;;;23.50;55.50;;;;;;10981654;32;20027;-73
2022/08/13 03:32:25;;;;;;;5.25;3.37;;;23.30;55.60;;;;;;10981165;32;20065;-73
2022/08/13 03:38:29;;;;;;;7.23;3.73;;;23.10;55.80;;;;;;10967855;32;20026;-73
2022/08/13 03:44:31;;;;;;;6.40;3.58;;;23.00;55.90;;;;;;10980850;32;20044;-73
2022/08/13 03:50:33;;;;;;;5.87;3.33;;;22.90;56.00;;;;;;10976927;32;20049;-73
2022/08/13 03:56:36;;;;;;;7.32;3.58;;;23.00;55.90;;;;;;10980423;32;20030;-73
2022/08/13 04:02:41;;;;;;;5.78;2.90;;;23.10;55.90;;;;;;10980304;32;20018;-73
2022/08/13 04:08:46;;;;;;;4.28;2.83;;;23.10;55.80;;;;;;10980173;32;20023;-73
2022/08/13 04:14:53;;;;;;;4.25;2.30;;;23.10;55.80;;;;;;10967057;32;20062;-73
2022/08/13 04:20:55;;;;;;;5.03;2.28;;;23.00;55.90;;;;;;10979852;32;20049;-73
2022/08/13 04:26:58;;;;;;;3.97;2.35;;;23.00;56.00;;;;;;10972499;26;20058;-73
2022/08/13 04:33:03;;;;;;;6.43;2.47;;;22.90;56.10;;;;;;10898850;32;20020;-73
2022/08/13 04:39:06;;;;;;;3.12;1.92;;;22.80;56.10;;;;;;10885401;32;20023;-72
2022/08/13 04:45:08;;;;;;;3.65;2.10;;;22.80;56.10;;;;;;10898661;32;20046;-73
2022/08/13 04:51:11;;;;;;;3.15;2.10;;;22.70;56.20;;;;;;10902094;32;20027;-73
2022/08/13 04:57:14;;;;;;;4.07;2.45;;;22.60;56.40;;;;;;10891722;32;20015;-73
2022/08/13 05:03:18;;;;;;;4.45;2.80;;;22.60;56.50;;;;;;10891475;32;20031;-73
2022/08/13 05:09:20;;;;;;;6.35;3.42;;;22.60;56.50;;;;;;10904622;32;20039;-73
2022/08/13 05:15:23;;;;;;;3.90;2.45;;;22.70;56.30;;;;;;10904409;32;20101;-73
2022/08/13 05:21:25;;;;;;;4.82;2.45;;;22.70;56.20;;;;;;10904245;32;20027;-73
2022/08/13 05:27:27;;;;;;;4.12;2.72;;;22.80;55.90;;;;;;10904027;32;20035;-73
2022/08/13 05:33:31;;;;;;;6.43;3.17;;;22.70;56.10;;;;;;10900454;32;20027;-73
2022/08/13 05:39:34;;;;;;;4.70;2.67;;;22.80;56.10;;;;;;10890415;32;20054;-73
2022/08/13 05:45:46;;;;;;;10.00;3.30;;;22.80;55.90;;;;;;10903683;32;20292;-73
2022/08/13 05:51:50;;;;;;;5.85;2.47;;;23.00;55.80;;;;;;10903396;32;20040;-73
2022/08/13 05:57:53;;;;;;;4.50;2.62;;;23.00;55.70;;;;;;10889975;32;20051;-73
2022/08/13 06:03:55;;;;;;;7.37;3.15;;;23.00;55.70;;;;;;10902934;32;20050;-73
2022/08/13 06:10:18;;;;;;;2.87;1.92;;;22.80;55.70;;;;;;10902859;32;20339;-73
2022/08/13 06:16:22;;;;;;;3.72;2.10;;;22.80;55.90;;;;;;10889403;32;20331;-73
2022/08/13 06:22:26;;;;;;;2.72;1.55;;;22.90;55.70;;;;;;10902467;32;20403;-73
2022/08/13 06:28:45;;;;;;;3.47;1.17;;;23.00;55.50;;;;;;10902315;32;20050;-73
2022/08/13 06:34:50;;;;;;;1.55;1.10;;;23.30;55.20;;;;;;10902080;32;20342;-73
2022/08/13 06:40:54;;;;;;;1.42;1.17;;;23.50;54.90;;;;;;10902076;32;20192;-72
2022/08/13 06:47:18;;;;;;;0.88;0.70;;;23.70;54.70;;;;;;10901837;32;20050;-73
2022/08/13 06:53:20;;;;;;;1.42;0.95;;;23.80;54.60;;;;;;10901736;32;20061;-73
2022/08/13 06:59:24;;;;;;;0.70;0.52;;;23.80;54.50;;;;;;10901522;32;20335;-72
2022/08/13 07:05:35;;;;;;;0.68;0.57;;;24.00;54.50;;;;;;10901274;32;20019;-72
2022/08/13 07:11:37;;;;;;;0.88;0.65;;;24.10;54.40;;;;;;10899546;32;20031;-72
2022/08/13 07:17:41;;;;;;;0.73;0.62;;;24.30;54.10;;;;;;10900945;32;20020;-71
2022/08/13 07:23:43;;;;;;;1.77;1.00;;;24.50;53.90;;;;;;10900636;32;20092;-72
2022/08/13 07:29:49;;;;;;;0.90;0.65;;;24.70;53.70;;;;;;10900447;32;20020;-71
2022/08/13 07:35:51;;;;;;;1.42;0.82;;;24.80;53.60;;;;;;10900347;32;20023;-71
2022/08/13 07:41:55;;;;;;;1.08;0.62;;;24.90;53.30;;;;;;10900231;32;20059;-71
2022/08/13 07:47:58;;;;;;;0.82;0.50;;;25.00;53.10;;;;;;10899923;32;20030;-72
2022/08/13 07:54:01;;;;;;;0.95;0.43;;;25.20;53.00;;;;;;10886527;32;20042;-72
2022/08/13 08:00:08;;;;;;;4.03;1.45;;;25.40;52.30;;;;;;10899678;32;20092;-72
2022/08/13 08:06:17;;;;;;;1.73;0.65;;;25.60;52.20;;;;;;10899701;32;20050;-72
2022/08/13 08:12:35;;;;;;;0.65;0.50;;;25.80;51.90;;;;;;10898679;32;20027;-72
2022/08/13 08:18:37;;;;;;;3.20;0.60;;;25.80;51.80;;;;;;10899478;32;20023;-72
2022/08/13 08:24:39;;;;;;;1.52;0.82;;;26.00;51.10;;;;;;10899004;32;20019;-72
2022/08/13 08:30:42;;;;;;;3.03;0.60;;;26.20;50.80;;;;;;10885534;32;20340;-72
2022/08/13 08:36:45;;;;;;;0.80;0.73;;;26.30;50.00;;;;;;10898521;32;20050;-72
2022/08/13 08:42:49;;;;;;;1.25;0.70;;;26.50;49.50;;;;;;10898550;32;20027;-71
2022/08/13 08:48:54;;;;;;;0.68;0.60;;;26.60;48.70;;;;;;10898584;32;20445;-71
2022/08/13 08:54:56;;;;;;;4.12;1.33;;;26.70;48.20;;;;;;10898318;32;20050;-72
2022/08/13 09:00:59;;;;;;;1.67;0.98;;;26.80;47.40;;;;;;10898242;32;20046;-71
2022/08/13 09:07:02;;;;;;;2.20;0.98;;;26.80;46.90;;;;;;10864901;32;20426;-71
2022/08/13 09:13:08;;;;;;;1.85;0.93;;;26.80;47.00;;;;;;10859818;32;20031;-71
2022/08/13 09:19:13;;;;;;;2.20;0.95;;;27.00;46.80;;;;;;10860560;32;20012;-71
2022/08/13 09:25:31;;;;;;;0.62;0.55;;;27.10;45.40;;;;;;10862393;32;20332;-70
2022/08/13 09:31:33;;;;;;;0.32;0.32;;;27.30;44.50;;;;;;10860223;32;20078;-71
2022/08/13 09:37:35;;;;;;;1.70;1.23;;;27.50;45.10;;;;;;10863720;32;20426;-70
2022/08/13 09:43:40;;;;;;;1.00;0.73;;;27.60;44.10;;;;;;10865745;32;20019;-71
2022/08/13 09:49:45;;;;;;;1.85;0.85;;;27.70;43.80;;;;;;10865993;32;20400;-71
2022/08/13 09:55:48;;;;;;;1.83;1.23;;;27.80;43.80;;;;;;10865240;32;20016;-73
2022/08/13 10:01:52;;;;;;;1.95;1.30;;;27.90;43.50;;;;;;10865060;32;20028;-71
2022/08/13 10:07:54;;;;;;;1.50;1.05;;;28.10;43.30;;;;;;10865146;32;20046;-71
2022/08/13 10:13:57;;;;;;;2.03;1.10;;;28.30;43.00;;;;;;10865213;32;20301;-71
2022/08/13 10:19:59;;;;;;;3.28;0.88;;;28.30;43.10;;;;;;10865315;32;20069;-71
2022/08/13 10:26:02;;;;;;;1.15;0.70;;;28.50;42.80;;;;;;10864313;32;20096;-72
2022/08/13 10:32:06;;;;;;;1.17;1.05;;;28.70;42.50;;;;;;10864800;32;20328;-72
2022/08/13 10:38:16;;;;;;;1.85;1.02;;;28.80;42.70;;;;;;10860775;32;20050;-70
2022/08/13 10:44:19;;;;;;;1.37;0.90;;;28.90;42.70;;;;;;10860477;32;20049;-71
2022/08/13 10:50:29;;;;;;;1.58;0.93;;;29.00;42.20;;;;;;10861271;32;20027;-70
2022/08/13 10:56:32;;;;;;;1.08;0.90;;;29.30;42.00;;;;;;10863439;32;20301;-71
2022/08/13 11:02:36;;;;;;;1.42;0.90;;;29.30;42.00;;;;;;10863180;32;20050;-71
2022/08/13 11:08:39;;;;;;;2.20;1.10;;;29.60;41.50;;;;;;10863849;32;20024;-71
2022/08/13 11:14:41;;;;;;;1.02;0.70;;;29.80;40.90;;;;;;10863844;32;20425;-70
2022/08/13 11:21:02;;;;;;;4.85;1.67;;;29.80;40.90;;;;;;10863629;32;20442;-71
2022/08/13 11:27:06;;;;;;;1.75;1.02;;;29.70;40.80;;;;;;10863405;32;20032;-71
2022/08/13 11:33:08;;;;;;;3.15;1.37;;;29.60;41.00;;;;;;10862364;32;20020;-71
2022/08/13 11:39:11;;;;;;;2.70;1.35;;;29.50;41.60;;;;;;10863122;32;20315;-71
2022/08/13 11:45:13;;;;;;;2.30;1.35;;;29.40;42.10;;;;;;10863077;32;20074;-71
2022/08/13 11:51:15;;;;;;;2.22;1.10;;;29.30;42.30;;;;;;10862701;32;20028;-71
2022/08/13 11:57:17;;;;;;;4.37;1.55;;;29.30;42.40;;;;;;10862130;32;20050;-71
2022/08/13 12:03:20;;;;;;;3.00;1.15;;;29.20;43.20;;;;;;10862465;32;20024;-70
2022/08/13 12:09:22;;;;;;;3.72;1.12;;;29.30;43.40;;;;;;10862263;32;20024;-71
2022/08/13 12:15:24;;;;;;;3.28;1.23;;;29.30;43.50;;;;;;10859123;32;20396;-71
2022/08/13 12:21:27;;;;;;;3.03;0.95;;;29.30;44.00;;;;;;10858302;32;20020;-72
2022/08/13 12:27:29;;;;;;;2.53;1.30;;;29.20;43.80;;;;;;10874980;27;20049;-72
2022/08/13 12:33:34;;;;;;;4.62;1.10;;;29.40;43.40;;;;;;10885592;32;20031;-72
2022/08/13 12:39:36;;;;;;;1.33;1.00;;;29.40;43.20;;;;;;10898771;32;20016;-71
2022/08/13 12:45:41;;;;;;;2.78;1.15;;;29.30;43.70;;;;;;10882317;32;20391;-72
2022/08/13 12:51:43;;;;;;;2.50;1.23;;;29.20;43.80;;;;;;10858451;32;20089;-72
2022/08/13 12:57:45;;;;;;;1.05;0.70;;;29.30;43.20;;;;;;10861253;32;20039;-71
2022/08/13 13:03:47;;;;;;;3.47;0.98;;;29.30;43.30;;;;;;10860156;32;20020;-72
2022/08/13 13:09:50;;;;;;;0.80;0.50;;;29.60;42.70;;;;;;10861810;32;20050;-71
2022/08/13 13:15:54;;;;;;;3.10;1.10;;;29.90;42.20;;;;;;10866473;32;20402;-72
2022/08/13 13:21:56;;;;;;;1.90;1.35;;;30.00;42.00;;;;;;10865237;32;20020;-71
2022/08/13 13:28:02;;;;;;;0.95;0.80;;;29.80;42.10;;;;;;10866983;32;20046;-72
2022/08/13 13:34:05;;;;;;;1.45;0.93;;;29.80;41.90;;;;;;10862652;32;20343;-72
2022/08/13 13:40:08;;;;;;;1.10;0.82;;;30.00;41.60;;;;;;10866586;32;20426;-72
2022/08/13 13:46:10;;;;;;;3.15;1.37;;;30.10;41.20;;;;;;10866202;32;20019;-72
2022/08/13 13:52:12;;;;;;;0.28;0.28;;;30.10;41.40;;;;;;10864228;32;20031;-72
2022/08/13 13:58:19;;;;;;;2.65;1.08;;;29.90;41.70;;;;;;10862144;32;20063;-72
2022/08/13 14:04:21;;;;;;;1.40;0.98;;;29.80;41.90;;;;;;10860620;32;20019;-72
2022/08/13 14:10:26;;;;;;;7.28;1.45;;;30.00;41.60;;;;;;10865772;32;20023;-73
2022/08/13 14:16:28;;;;;;;0.80;0.80;;;30.10;41.20;;;;;;10852394;32;20019;-73
2022/08/13 14:22:35;;;;;;;8.23;1.27;;;30.20;41.00;;;;;;10865089;32;20356;-72
2022/08/13 14:28:43;;;;;;;2.00;0.98;;;30.40;40.50;;;;;;10851854;32;20023;-73
2022/08/13 14:35:03;;;;;;;6.12;1.40;;;30.30;40.40;;;;;;10852433;32;20396;-72
2022/08/13 14:41:05;;;;;;;2.70;1.50;;;30.40;40.40;;;;;;10864700;32;20058;-72
2022/08/13 14:47:08;;;;;;;3.00;0.73;;;30.50;40.60;;;;;;10849349;32;20050;-72
2022/08/13 14:53:26;;;;;;;4.37;0.95;;;30.50;40.80;;;;;;10864478;32;20023;-72
2022/08/13 14:59:53;;;;;;;;;;;30.40;40.90;;;;;;10864220;32;20031;-71
2022/08/13 15:06:03;;;;;;;0.77;0.60;;;30.40;41.10;;;;;;10864152;32;19946;-71
2022/08/13 15:12:06;;;;;;;0.85;0.80;;;30.30;41.20;;;;;;10863873;32;20340;-72
2022/08/13 15:18:08;;;;;;;1.08;0.75;;;30.40;41.10;;;;;;10863764;32;20046;-72
2022/08/13 15:24:11;;;;;;;2.62;1.20;;;30.50;40.90;;;;;;10863344;32;20317;-72
2022/08/13 15:30:33;;;;;;;1.42;1.05;;;30.60;40.80;;;;;;10863189;32;20066;-72
2022/08/13 15:36:54;;;;;;;8.23;1.25;;;30.60;41.10;;;;;;10862982;32;20149;-72
2022/08/13 15:42:58;;;;;;;1.08;0.82;;;30.60;41.20;;;;;;10863000;32;20388;-72
2022/08/13 15:49:01;;;;;;;11.32;1.40;;;30.40;41.50;;;;;;10862673;32;20032;-72
2022/08/13 15:55:06;;;;;;;3.22;1.62;;;30.60;41.70;;;;;;10862602;32;20078;-71
2022/08/13 16:01:09;;;;;;;2.35;1.12;;;30.40;41.80;;;;;;10860074;32;20039;-71
2022/08/13 16:07:11;;;;;;;1.02;0.80;;;30.30;41.50;;;;;;10861503;32;20331;-72
2022/08/13 16:13:14;;;;;;;1.75;0.90;;;30.30;41.50;;;;;;10861938;32;20063;-71
2022/08/13 16:19:19;;;;;;;2.90;1.20;;;30.20;41.50;;;;;;10861865;32;20023;-71
2022/08/13 16:25:25;;;;;;;1.20;1.08;;;30.20;41.60;;;;;;10861702;32;20027;-72
2022/08/13 16:31:33;;;;;;;1.85;1.05;;;30.20;41.10;;;;;;10858112;32;20019;-71
2022/08/13 16:37:36;;;;;;;2.65;1.12;;;30.10;40.70;;;;;;10861925;32;20024;-71
2022/08/13 16:43:40;;;;;;;1.85;1.02;;;30.00;40.80;;;;;;10862666;32;20050;-71
2022/08/13 16:49:42;;;;;;;1.35;1.02;;;29.90;41.00;;;;;;10868080;32;20027;-72
2022/08/13 16:55:45;;;;;;;2.05;0.88;;;29.80;41.40;;;;;;10854766;32;20063;-71
2022/08/13 17:01:48;;;;;;;1.62;0.55;;;29.70;41.50;;;;;;10867542;32;20407;-71
2022/08/13 17:14:15;;;;;;;1.23;0.85;;;29.40;42.20;;;;;;10863756;32;20028;-71
2022/08/13 17:20:19;;;;;;;1.43;1.10;;;29.30;42.40;;;;;;10866585;32;20054;-71
2022/08/13 17:26:21;;;;;;;0.82;0.70;;;29.20;43.00;;;;;;10867222;32;20059;-71
2022/08/13 17:32:23;;;;;;;1.20;0.62;;;29.10;43.50;;;;;;10867285;32;20046;-71
2022/08/13 17:38:27;;;;;;;1.37;1.15;;;29.30;43.40;;;;;;10867164;32;20046;-71
2022/08/13 17:44:29;;;;;;;1.33;0.57;;;29.00;44.00;;;;;;10866954;32;20016;-71
2022/08/13 17:50:32;;;;;;;1.12;0.73;;;28.90;44.10;;;;;;10866095;32;20047;-71
2022/08/13 17:56:55;;;;;;;0.50;0.37;;;28.80;44.30;;;;;;10852938;32;20062;-71
2022/08/13 18:02:57;;;;;;;1.52;1.05;;;28.80;44.40;;;;;;10866452;32;20016;-71
2022/08/13 18:09:09;;;;;;;0.80;0.70;;;28.70;44.70;;;;;;10862430;32;20062;-71
2022/08/13 18:15:12;;;;;;;1.42;0.68;;;28.70;44.90;;;;;;10866009;32;20020;-71
2022/08/13 18:21:16;;;;;;;0.40;0.40;;;28.60;44.90;;;;;;10861283;32;20065;-71
2022/08/13 18:27:19;;;;;;;1.20;0.57;;;28.60;44.90;;;;;;10863363;32;20035;-71
2022/08/13 18:33:32;;;;;;;0.77;0.40;;;28.40;45.30;;;;;;10864987;32;20020;-71
2022/08/13 18:39:34;;;;;;;0.95;0.70;;;28.30;45.60;;;;;;10864829;32;20046;-71
2022/08/13 18:45:36;;;;;;;5.10;0.85;;;28.30;45.70;;;;;;10864753;32;20023;-71
2022/08/13 18:51:38;;;;;;;5.07;1.02;;;28.20;45.70;;;;;;10864527;32;20024;-71
2022/08/13 18:57:42;;;;;;;1.95;0.93;;;28.10;45.90;;;;;;10864435;32;20024;-71
2022/08/13 19:03:46;;;;;;;1.70;0.70;;;28.10;46.20;;;;;;10863442;32;20073;-71
2022/08/13 19:09:49;;;;;;;2.35;0.90;;;27.90;46.30;;;;;;10858962;32;20433;-71
2022/08/13 19:15:52;;;;;;;1.10;0.90;;;27.90;46.40;;;;;;10863857;32;20020;-71
2022/08/13 19:21:54;;;;;;;1.58;0.95;;;27.80;46.70;;;;;;10863685;32;20054;-71
2022/08/13 19:27:57;;;;;;;0.70;0.57;;;27.70;47.30;;;;;;10863556;32;20301;-71
2022/08/13 19:34:28;;;;;;;1.00;0.65;;;27.60;47.40;;;;;;10863396;32;20384;-71
2022/08/13 19:40:33;;;;;;;2.35;0.90;;;27.60;47.40;;;;;;10863186;32;20376;-71
2022/08/13 19:46:35;;;;;;;21.73;1.58;;;27.50;47.60;;;;;;10862957;32;20047;-71
2022/08/13 19:52:38;;;;;;;2.05;0.98;;;27.50;47.70;;;;;;10862804;32;20115;-71
2022/08/13 19:58:42;;;;;;;4.22;1.50;;;27.30;47.90;;;;;;10862656;32;20027;-71
2022/08/13 20:04:44;;;;;;;1.10;0.62;;;27.30;48.20;;;;;;10862454;32;20050;-71
2022/08/13 20:10:49;;;;;;;8.77;1.25;;;27.20;48.30;;;;;;10862297;32;20023;-71
2022/08/13 20:16:51;;;;;;;1.60;0.50;;;27.10;48.40;;;;;;10861388;32;20047;-71
2022/08/13 20:22:54;;;;;;;2.22;1.35;;;27.10;48.50;;;;;;10861746;32;20032;-71
2022/08/13 20:28:56;;;;;;;1.45;0.80;;;27.00;48.50;;;;;;10354945;27;15419449;-71
2022/08/13 20:34:58;;;;;;;2.25;1.12;;;27.00;48.60;;;;;;10748599;32;20424;-71
2022/08/13 20:41:02;;;;;;;2.37;1.00;;;27.00;48.80;;;;;;10735796;33;20333;-71
2022/08/13 20:47:04;;;;;;;3.35;1.00;;;26.90;48.80;;;;;;10747424;33;20067;-71
2022/08/13 20:53:24;;;;;;;2.67;0.75;;;26.70;49.00;;;;;;10735125;33;20431;-71
2022/08/13 20:59:27;;;;;;;0.82;0.70;;;26.60;49.20;;;;;;10747172;33;20341;-71
2022/08/13 21:05:30;;;;;;;0.82;0.60;;;26.50;49.30;;;;;;10758507;32;20384;-71
2022/08/13 21:11:32;;;;;;;0.80;0.50;;;26.50;49.30;;;;;;10860886;32;20015;-71
2022/08/13 21:17:34;;;;;;;0.93;0.68;;;26.40;49.30;;;;;;10860855;32;20027;-71
2022/08/13 21:23:37;;;;;;;2.50;1.12;;;26.40;49.30;;;;;;10860606;32;20381;-71
2022/08/13 21:29:39;;;;;;;1.55;1.10;;;26.30;49.40;;;;;;10847202;32;20020;-71
2022/08/13 21:35:41;;;;;;;0.50;0.50;;;26.30;49.50;;;;;;10848987;32;20054;-71
2022/08/13 21:41:44;;;;;;;1.25;0.90;;;26.30;49.60;;;;;;10855657;32;20434;-71
2022/08/13 21:47:48;;;;;;;1.10;0.77;;;26.30;49.60;;;;;;10828593;33;20381;-71
2022/08/13 21:54:22;;;;;;;0.60;0.57;;;26.30;49.50;;;;;;10829252;33;20047;-71
2022/08/13 22:00:33;;;;;;;2.05;1.00;;;26.30;49.70;;;;;;10869024;32;20427;-71
2022/08/13 22:06:37;;;;;;;0.73;0.50;;;26.10;49.80;;;;;;10867820;32;20078;-71
2022/08/13 22:12:40;;;;;;;1.05;0.70;;;26.00;49.90;;;;;;10863256;32;20063;-71
2022/08/13 22:18:44;;;;;;;1.02;0.65;;;25.90;50.00;;;;;;10831285;32;20046;-71
2022/08/13 22:24:46;;;;;;;1.37;1.05;;;26.00;50.10;;;;;;10818771;32;20051;-71
2022/08/13 22:30:48;;;;;;;1.23;0.85;;;26.10;50.00;;;;;;10829972;32;20035;-71
2022/08/13 22:36:50;;;;;;;2.03;0.90;;;26.00;50.00;;;;;;10829248;32;20043;-71
2022/08/13 22:42:53;;;;;;;1.45;0.90;;;25.90;50.20;;;;;;10827734;32;20368;-71
2022/08/13 22:48:56;;;;;;;1.58;0.80;;;25.90;50.30;;;;;;10827528;33;20063;-71
2022/08/13 22:54:59;;;;;;;0.60;0.57;;;25.80;50.50;;;;;;10827593;33;20020;-71
2022/08/13 23:01:01;;;;;;;0.75;0.52;;;25.90;50.40;;;;;;10814260;33;20012;-71
2022/08/13 23:07:03;;;;;;;5.32;1.27;;;25.80;50.50;;;;;;10827069;33;20051;-71
2022/08/13 23:13:11;;;;;;;1.65;0.98;;;25.70;50.80;;;;;;10826780;33;20081;-71
2022/08/13 23:19:17;;;;;;;1.15;0.85;;;25.80;50.70;;;;;;10825607;33;20404;-71
2022/08/13 23:25:20;;;;;;;0.85;0.60;;;25.70;50.80;;;;;;10826310;33;20027;-71
2022/08/13 23:31:22;;;;;;;2.72;0.80;;;25.70;50.90;;;;;;10826324;33;20100;-71
2022/08/13 23:37:24;;;;;;;1.58;0.70;;;25.60;51.00;;;;;;10826179;33;20055;-71
2022/08/13 23:43:26;;;;;;;2.12;0.73;;;25.50;51.10;;;;;;10825338;33;20054;-71
2022/08/13 23:49:29;;;;;;;0.80;0.50;;;25.50;51.20;;;;;;10825868;33;20058;-71
2022/08/13 23:55:32;;;;;;;2.22;0.80;;;25.40;51.20;;;;;;10825201;32;20024;-71
